Time;durP1;ratioP1;P1;durP2;ratioP2;P2;SDS_P1;SDS_P2;PMS_P1;PMS_P2;Temp;Humidity;BMP_temperature;BMP_pressure;BME280_temperature;BME280_humidity;BME280_pressure;Samples;Min_cycle;Max_cycle;Signal;HPM_P1;HPM_P2
2022/09/07 00:00:01;;;;;;;10.82;8.95;;;;;;;15.32;100.00;98387.72;4237583;27;20050;-72
2022/09/07 00:02:01;;;;;;;9.70;8.32;;;;;;;15.32;100.00;98381.34;4237781;27;20495;-72
2022/09/07 00:04:02;;;;;;;11.05;9.20;;;;;;;15.32;100.00;98384.16;4237636;27;20368;-72
2022/09/07 00:06:08;;;;;;;11.63;9.48;;;;;;;15.28;100.00;98389.75;4237965;27;20035;-72
2022/09/07 00:08:09;;;;;;;12.25;10.50;;;;;;;15.27;100.00;98387.38;4237890;27;20031;-72
2022/09/07 00:10:09;;;;;;;12.00;9.98;;;;;;;15.27;100.00;98398.50;4237308;27;20031;-72
2022/09/07 00:12:09;;;;;;;11.55;8.60;;;;;;;15.23;100.00;98395.78;4237872;27;20445;-72
2022/09/07 00:14:10;;;;;;;9.90;8.90;;;;;;;15.21;100.00;98392.59;4237050;27;20027;-73
2022/09/07 00:16:19;;;;;;;18.70;11.23;;;;;;;15.17;100.00;98391.84;4237855;27;20110;-73
2022/09/07 00:18:20;;;;;;;14.18;10.88;;;;;;;15.15;100.00;98395.03;4237881;27;20073;-72
2022/09/07 00:20:21;;;;;;;14.05;11.43;;;;;;;15.14;100.00;98392.63;4237794;27;20560;-72
2022/09/07 00:22:21;;;;;;;21.95;11.25;;;;;;;15.09;100.00;98388.31;4237227;27;20313;-72
2022/09/07 00:24:21;;;;;;;12.25;10.95;;;;;;;15.13;100.00;98396.63;4237623;27;20067;-72
2022/09/07 00:26:24;;;;;;;13.77;10.52;;;;;;;15.09;100.00;98387.53;4237629;27;20038;-72
2022/09/07 00:28:24;;;;;;;11.32;10.10;;;;;;;15.08;100.00;98385.94;4236667;27;20047;-72
2022/09/07 00:30:25;;;;;;;10.70;9.60;;;;;;;15.10;100.00;98384.31;4237461;27;20302;-73
2022/09/07 00:32:25;;;;;;;14.13;10.65;;;;;;;15.07;100.00;98387.94;4237860;27;20031;-73
2022/09/07 00:34:25;;;;;;;11.85;10.65;;;;;;;15.09;100.00;98393.09;4237445;27;20055;-72
2022/09/07 00:36:26;;;;;;;13.48;10.15;;;;;;;15.08;100.00;98400.66;4238917;27;20475;-72
2022/09/07 00:38:27;;;;;;;11.00;9.90;;;;;;;15.04;100.00;98394.31;4236870;27;20071;-72
2022/09/07 00:40:27;;;;;;;13.27;10.65;;;;;;;15.01;100.00;98397.13;4237199;27;20067;-72
2022/09/07 00:42:27;;;;;;;12.05;10.43;;;;;;;14.96;100.00;98397.56;4237475;27;20047;-73
2022/09/07 00:44:43;;;;;;;13.48;10.85;;;;;;;14.92;100.00;98402.38;4237164;27;20047;-72
2022/09/07 00:46:44;;;;;;;11.70;10.10;;;;;;;14.88;100.00;98391.25;4237688;27;20579;-72
2022/09/07 00:48:58;;;;;;;12.45;10.95;;;;;;;14.84;100.00;98401.63;4236546;27;20076;-72
2022/09/07 00:51:04;;;;;;;12.40;10.85;;;;;;;14.84;100.00;98396.84;4237367;27;20175;-72
2022/09/07 00:53:18;;;;;;;14.45;10.52;;;;;;;14.84;100.00;98398.84;4236861;27;20043;-72
2022/09/07 00:55:18;;;;;;;14.18;10.48;;;;;;;14.84;100.00;98393.28;4235882;27;20511;-72
2022/09/07 00:57:19;;;;;;;11.48;10.25;;;;;;;14.80;100.00;98401.63;4237512;27;20050;-72
2022/09/07 00:59:26;;;;;;;13.68;11.45;;;;;;;14.80;100.00;98401.63;4236716;27;20126;-72
2022/09/07 01:01:27;;;;;;;14.50;11.45;;;;;;;14.78;100.00;98401.25;4237230;27;20394;-72
2022/09/07 01:03:32;;;;;;;14.70;12.38;;;;;;;14.74;100.00;98405.28;4237706;27;20047;-72
2022/09/07 01:05:40;;;;;;;17.73;11.77;;;;;;;14.75;100.00;98409.66;4236799;27;20050;-72
2022/09/07 01:07:41;;;;;;;13.88;11.38;;;;;;;14.76;100.00;98414.81;4237453;27;20055;-72
2022/09/07 01:09:42;;;;;;;13.60;11.90;;;;;;;14.76;100.00;98403.66;4236290;27;20366;-72
2022/09/07 01:11:49;;;;;;;15.50;12.25;;;;;;;14.77;100.00;98405.25;4237140;27;20137;-72
2022/09/07 01:13:51;;;;;;;16.98;13.38;;;;;;;14.78;100.00;98395.69;4236040;27;20041;-72
2022/09/07 01:15:55;;;;;;;14.02;12.55;;;;;;;14.82;100.00;98404.03;4236452;27;20371;-72
2022/09/07 01:18:03;;;;;;;13.68;12.00;;;;;;;14.81;100.00;98403.25;4236649;27;20047;-72
2022/09/07 01:20:29;;;;;;;19.35;13.75;;;;;;;14.77;100.00;98404.47;4236285;27;20051;-72
2022/09/07 01:22:56;;;;;;;15.52;12.82;;;;;;;14.76;100.00;98405.66;4237287;27;20070;-72
2022/09/07 01:25:16;;;;;;;13.68;11.82;;;;;;;14.74;100.00;98403.28;4236208;27;20138;-72
2022/09/07 01:27:31;;;;;;;13.75;12.02;;;;;;;14.73;100.00;98403.69;4236605;27;20066;-72
2022/09/07 01:29:53;;;;;;;12.68;10.88;;;;;;;14.75;100.00;98402.09;4235786;27;20297;-72
2022/09/07 01:32:19;;;;;;;13.50;11.60;;;;;;;14.75;100.00;98406.88;4236234;27;20035;-72
2022/09/07 01:34:23;;;;;;;13.93;11.77;;;;;;;14.75;100.00;98404.88;4224990;27;20078;-72
2022/09/07 01:36:59;;;;;;;14.20;11.90;;;;;;;14.75;100.00;98404.09;4236223;27;20042;-72
2022/09/07 01:39:04;;;;;;;13.45;11.43;;;;;;;14.72;100.00;98402.09;4148841;28;20374;-73
2022/09/07 01:41:13;;;;;;;15.63;12.68;;;;;;;14.72;100.00;98402.09;4194624;27;20031;-73
2022/09/07 01:43:52;;;;;;;15.00;11.65;;;;;;;14.69;100.00;98402.91;4235354;27;20063;-72
2022/09/07 01:45:55;;;;;;;13.00;10.75;;;;;;;14.65;100.00;98391.03;4235624;27;20046;-72
2022/09/07 01:47:59;;;;;;;15.48;11.77;;;;;;;14.59;100.00;98393.44;4236530;27;20043;-72
2022/09/07 01:50:21;;;;;;;13.32;11.57;;;;;;;14.60;100.00;98390.25;4235891;27;20099;-72
2022/09/07 01:52:27;;;;;;;14.40;11.30;;;;;;;14.59;100.00;98388.66;4236163;27;20042;-72
2022/09/07 01:54:33;;;;;;;14.15;11.20;;;;;;;14.61;100.00;98396.59;4236363;27;20039;-72
2022/09/07 01:56:43;;;;;;;13.63;10.95;;;;;;;14.61;100.00;98391.03;4236535;27;20073;-72
2022/09/07 01:58:51;;;;;;;14.02;11.70;;;;;;;14.63;100.00;98388.63;4235688;27;20054;-72
2022/09/07 02:00:57;;;;;;;10.55;9.45;;;;;;;14.62;100.00;98387.03;4235587;27;20051;-72
2022/09/07 02:03:13;;;;;;;12.30;10.93;;;;;;;14.63;100.00;98377.50;4236264;27;20039;-72
2022/09/07 02:05:26;;;;;;;14.48;11.55;;;;;;;14.65;100.00;98382.69;4235175;27;20095;-71
2022/09/07 02:07:32;;;;;;;14.98;11.43;;;;;;;14.64;100.00;98383.84;4236060;27;20047;-71
2022/09/07 02:09:45;;;;;;;16.13;12.60;;;;;;;14.63;100.00;98374.69;4235939;27;20043;-72
2022/09/07 02:11:48;;;;;;;16.33;13.02;;;;;;;14.60;100.00;98367.19;4235473;27;20070;-72
2022/09/07 02:13:52;;;;;;;13.73;11.95;;;;;;;14.61;100.00;98363.97;4235682;27;20043;-72
2022/09/07 02:16:01;;;;;;;14.15;12.05;;;;;;;14.60;100.00;98362.41;4235426;27;20051;-72
2022/09/07 02:18:06;;;;;;;15.70;13.23;;;;;;;14.57;100.00;98354.09;4236047;27;20046;-72
2022/09/07 02:20:18;;;;;;;13.43;11.68;;;;;;;14.53;100.00;98348.53;4235245;27;20030;-71
2022/09/07 02:22:24;;;;;;;14.00;12.07;;;;;;;14.52;100.00;98355.28;4235822;27;20173;-72
2022/09/07 02:24:30;;;;;;;13.10;11.70;;;;;;;14.53;100.00;98361.66;4235705;27;20855;-72
2022/09/07 02:26:33;;;;;;;14.93;11.43;;;;;;;14.53;100.00;98367.22;4235296;27;20070;-72
2022/09/07 02:28:37;;;;;;;11.48;10.25;;;;;;;14.52;100.00;98368.41;4235379;27;20050;-72
2022/09/07 02:30:37;;;;;;;13.38;11.15;;;;;;;14.50;100.00;98368.03;4235603;28;20378;-72
2022/09/07 02:32:38;;;;;;;13.18;11.15;;;;;;;14.49;100.00;98367.25;4235900;28;20278;-72
2022/09/07 02:34:38;;;;;;;12.77;10.65;;;;;;;14.48;100.00;98362.88;4235633;28;20436;-72
2022/09/07 02:36:45;;;;;;;13.48;11.32;;;;;;;14.50;100.00;98356.91;4237042;27;20039;-71
2022/09/07 02:38:45;;;;;;;11.82;10.52;;;;;;;14.51;100.00;98359.28;4235044;28;20087;-71
2022/09/07 02:40:58;;;;;;;13.48;11.65;;;;;;;14.50;100.00;98357.69;4235485;28;20181;-72
2022/09/07 02:43:01;;;;;;;15.50;11.00;;;;;;;14.51;100.00;98364.06;4235423;28;20736;-72
2022/09/07 02:45:04;;;;;;;12.95;11.18;;;;;;;14.44;100.00;98353.72;4235739;28;20043;-72
2022/09/07 02:47:10;;;;;;;12.95;11.07;;;;;;;14.38;100.00;98352.56;4235773;28;20055;-72
2022/09/07 02:49:42;;;;;;;14.15;11.13;;;;;;;14.31;100.00;98363.72;4234834;28;20158;-72
2022/09/07 02:52:03;;;;;;;12.32;10.40;;;;;;;14.29;100.00;98355.00;4235689;28;20046;-72
2022/09/07 02:54:31;;;;;;;14.98;12.40;;;;;;;14.26;100.00;98356.59;4234720;28;20413;-71
2022/09/07 02:56:44;;;;;;;12.25;10.82;;;;;;;14.28;100.00;98359.78;4234802;28;20039;-72
2022/09/07 02:59:03;;;;;;;16.67;11.90;;;;;;;14.28;100.00;98359.78;4234577;28;20047;-72
2022/09/07 03:01:11;;;;;;;14.57;12.02;;;;;;;14.22;100.00;98358.59;4235863;28;20034;-72
2022/09/07 03:03:35;;;;;;;14.25;11.45;;;;;;;14.21;100.00;98367.34;4234267;28;20031;-72
2022/09/07 03:05:46;;;;;;;13.68;10.82;;;;;;;14.20;100.00;98363.78;4235942;28;20749;-72
2022/09/07 03:10:44;;;;;;;13.40;11.15;;;;;;;14.15;100.00;98355.06;4235389;28;20550;-72
2022/09/07 03:12:47;;;;;;;13.13;11.27;;;;;;;14.16;100.00;98356.66;4235624;28;20063;-72
2022/09/07 03:14:48;;;;;;;12.88;10.63;;;;;;;14.17;100.00;98353.47;4234312;28;20043;-72
2022/09/07 03:16:51;;;;;;;15.13;11.85;;;;;;;14.13;100.00;98349.13;4235194;28;20046;-72
2022/09/07 03:18:51;;;;;;;13.98;11.05;;;;;;;14.12;100.00;98353.09;4232941;28;20512;-72
2022/09/07 03:20:52;;;;;;;14.85;11.93;;;;;;;14.10;100.00;98356.28;4235563;28;20055;-72
2022/09/07 03:22:52;;;;;;;17.77;13.25;;;;;;;14.10;100.00;98358.28;4234900;28;20084;-72
2022/09/07 03:24:52;;;;;;;17.02;13.00;;;;;;;14.10;100.00;98358.28;4235447;28;20394;-72
2022/09/07 03:26:53;;;;;;;15.30;11.35;;;;;;;14.07;100.00;98351.53;4235813;28;20410;-72
2022/09/07 03:28:53;;;;;;;14.50;11.32;;;;;;;14.06;100.00;98347.94;4234659;28;20047;-72
2022/09/07 03:30:53;;;;;;;13.00;10.88;;;;;;;14.06;100.00;98349.94;4235371;28;20458;-72
2022/09/07 03:32:54;;;;;;;15.50;12.02;;;;;;;14.05;100.00;98349.13;4234806;28;20047;-72
2022/09/07 03:34:54;;;;;;;14.45;11.38;;;;;;;14.03;100.00;98351.53;4235193;28;20050;-72
2022/09/07 03:36:55;;;;;;;14.77;11.30;;;;;;;14.04;100.00;98353.13;4235352;27;20169;-72
2022/09/07 03:38:57;;;;;;;16.27;11.18;;;;;;;14.01;100.00;98351.16;4234825;28;20050;-72
2022/09/07 03:41:03;;;;;;;13.68;11.35;;;;;;;13.99;100.00;98347.22;4237166;27;20039;-72
2022/09/07 03:43:04;;;;;;;18.17;13.32;;;;;;;13.93;100.00;98335.69;4238364;27;20071;-71
2022/09/07 03:45:06;;;;;;;15.93;13.13;;;;;;;13.93;100.00;98334.91;4237768;27;20192;-71
2022/09/07 03:47:06;;;;;;;20.85;14.68;;;;;;;13.92;100.00;98330.53;4237207;27;20028;-71
2022/09/07 03:49:07;;;;;;;18.42;13.38;;;;;;;13.92;100.00;98336.09;4237556;27;20432;-71
2022/09/07 03:51:09;;;;;;;22.20;16.13;;;;;;;13.90;100.00;98335.69;4238020;27;20038;-71
2022/09/07 03:53:09;;;;;;;17.42;13.98;;;;;;;13.89;100.00;98340.47;4237763;27;20135;-71
2022/09/07 03:55:10;;;;;;;17.75;13.80;;;;;;;13.85;100.00;98334.16;4237926;27;20047;-72
2022/09/07 03:57:10;;;;;;;18.08;14.30;;;;;;;13.87;100.00;98331.75;4236443;27;20568;-72
2022/09/07 03:59:11;;;;;;;20.30;13.77;;;;;;;13.87;100.00;98337.31;4237523;27;20497;-72
2022/09/07 04:01:14;;;;;;;17.13;12.77;;;;;;;13.91;100.00;98337.31;4218903;28;20145;-72
2022/09/07 04:03:15;;;;;;;15.00;12.48;;;;;;;13.90;100.00;98341.25;4235619;27;20479;-72
2022/09/07 04:05:16;;;;;;;18.33;12.45;;;;;;;13.93;100.00;98332.13;4236798;27;20038;-72
2022/09/07 04:07:17;;;;;;;19.87;12.97;;;;;;;13.91;100.00;98326.19;4237065;27;20146;-72
2022/09/07 04:09:17;;;;;;;16.00;12.60;;;;;;;13.92;100.00;98328.56;4235156;27;20368;-72
2022/09/07 04:11:18;;;;;;;22.63;12.27;;;;;;;13.95;100.00;98319.38;4237482;27;20039;-72
2022/09/07 04:13:18;;;;;;;18.48;13.95;;;;;;;13.97;100.00;98321.75;4236943;27;20370;-72
2022/09/07 04:15:18;;;;;;;18.40;14.48;;;;;;;13.98;100.00;98329.72;4236844;27;20054;-72
2022/09/07 04:17:19;;;;;;;18.88;14.05;;;;;;;13.98;100.00;98326.13;4237531;27;20179;-72
2022/09/07 04:19:19;;;;;;;18.98;13.73;;;;;;;13.95;100.00;98321.38;4236893;27;20125;-72
2022/09/07 04:21:22;;;;;;;17.65;13.80;;;;;;;13.93;100.00;98321.00;4237212;27;20292;-72
2022/09/07 04:23:22;;;;;;;18.45;13.13;;;;;;;13.91;100.00;98324.19;4237163;27;20460;-72
2022/09/07 04:25:22;;;;;;;18.25;13.63;;;;;;;13.90;100.00;98319.00;4237270;27;20058;-72
2022/09/07 04:27:23;;;;;;;15.60;12.68;;;;;;;13.88;100.00;98316.63;4237262;27;20053;-72
2022/09/07 04:29:23;;;;;;;18.35;12.45;;;;;;;13.88;100.00;98313.06;4236508;27;21013;-72
2022/09/07 04:31:24;;;;;;;13.85;12.27;;;;;;;13.85;100.00;98311.09;4237337;27;20071;-72
2022/09/07 04:33:24;;;;;;;13.57;11.45;;;;;;;13.88;100.00;98326.97;4236895;27;20055;-72
2022/09/07 04:35:25;;;;;;;14.23;11.88;;;;;;;13.85;100.00;98320.25;4236731;27;20063;-71
2022/09/07 04:37:25;;;;;;;12.60;11.00;;;;;;;13.83;100.00;98321.84;4236822;27;20474;-71
2022/09/07 04:39:26;;;;;;;12.05;10.82;;;;;;;13.80;100.00;98317.06;4234713;27;20538;-71
2022/09/07 04:41:28;;;;;;;12.85;10.70;;;;;;;13.81;100.00;98324.22;4234787;27;20463;-71
2022/09/07 04:43:29;;;;;;;13.02;10.80;;;;;;;13.77;100.00;98325.03;4234592;27;20523;-71
2022/09/07 04:45:30;;;;;;;16.05;11.65;;;;;;;13.73;100.00;98326.22;4217864;28;20047;-71
2022/09/07 04:47:30;;;;;;;15.15;10.93;;;;;;;13.73;100.00;98323.44;4236166;27;20039;-71
2022/09/07 04:49:31;;;;;;;15.63;11.63;;;;;;;13.71;100.00;98339.75;4235579;27;20043;-72
2022/09/07 04:51:32;;;;;;;17.20;13.13;;;;;;;13.72;100.00;98363.56;4235994;27;20023;-72
2022/09/07 04:53:34;;;;;;;23.48;15.20;;;;;;;13.81;100.00;98363.16;4235884;27;20214;-72
2022/09/07 04:55:34;;;;;;;18.23;14.60;;;;;;;13.85;100.00;98350.03;4234276;27;20394;-72
2022/09/07 04:57:35;;;;;;;20.15;15.88;;;;;;;13.90;100.00;98349.59;4236697;27;20043;-72
2022/09/07 04:59:35;;;;;;;24.17;17.80;;;;;;;13.94;100.00;98351.19;4234136;27;20427;-72
2022/09/07 05:01:36;;;;;;;21.75;16.70;;;;;;;14.01;100.00;98331.69;4234731;27;20054;-72
2022/09/07 05:03:37;;;;;;;21.77;16.35;;;;;;;14.07;100.00;98337.63;4236817;27;20099;-72
2022/09/07 05:05:38;;;;;;;27.15;19.05;;;;;;;14.20;100.00;98341.53;4235009;27;20582;-72
2022/09/07 05:07:38;;;;;;;23.83;18.40;;;;;;;14.25;100.00;98360.59;4237270;27;20043;-72
2022/09/07 05:09:38;;;;;;;23.75;19.35;;;;;;;14.33;100.00;98372.47;4236464;27;20047;-72
2022/09/07 05:11:39;;;;;;;27.63;19.17;;;;;;;14.37;100.00;98367.66;4236252;27;20084;-72
2022/09/07 05:13:40;;;;;;;26.27;19.80;;;;;;;14.39;100.00;98367.25;4236281;27;20042;-72
2022/09/07 05:15:40;;;;;;;27.90;20.52;;;;;;;14.42;100.00;98377.59;4236482;27;20595;-72
2022/09/07 05:17:41;;;;;;;25.55;19.98;;;;;;;14.50;100.00;98351.34;4236828;27;20047;-72
2022/09/07 05:19:41;;;;;;;24.25;18.15;;;;;;;14.49;100.00;98364.47;4234510;27;20438;-72
2022/09/07 05:21:42;;;;;;;28.17;20.55;;;;;;;14.54;100.00;98368.78;4234881;27;20039;-72
2022/09/07 05:23:43;;;;;;;25.95;20.48;;;;;;;14.56;100.00;98360.81;4234736;27;20085;-72
2022/09/07 05:25:45;;;;;;;27.73;20.30;;;;;;;14.57;100.00;98379.94;4235475;27;20075;-72
2022/09/07 05:27:45;;;;;;;24.15;19.05;;;;;;;14.59;100.00;98366.38;4235740;27;20110;-72
2022/09/07 05:29:46;;;;;;;26.20;20.48;;;;;;;14.60;100.00;98353.25;4236946;27;20136;-72
2022/09/07 05:31:47;;;;;;;25.40;20.05;;;;;;;14.63;100.00;98358.00;4237259;27;20046;-72
2022/09/07 05:33:52;;;;;;;29.27;19.98;;;;;;;14.61;100.00;98369.53;4218376;28;20036;-72
2022/09/07 05:35:57;;;;;;;28.55;21.42;;;;;;;14.66;100.00;98367.53;4235819;27;20047;-72
2022/09/07 05:37:57;;;;;;;24.75;18.98;;;;;;;14.68;100.00;98365.94;4237038;27;20463;-72
2022/09/07 05:39:57;;;;;;;26.77;20.08;;;;;;;14.71;100.00;98353.97;4236374;27;20050;-72
2022/09/07 05:41:58;;;;;;;26.42;20.75;;;;;;;14.80;100.00;98367.44;4236654;27;20096;-72
2022/09/07 05:43:58;;;;;;;28.05;19.92;;;;;;;14.81;100.00;98355.09;4236660;27;20070;-72
2022/09/07 05:45:59;;;;;;;21.38;17.02;;;;;;;14.89;100.00;98363.00;4236993;27;20050;-72
2022/09/07 05:47:59;;;;;;;19.70;16.70;;;;;;;14.97;100.00;98368.50;4236598;27;20056;-72
2022/09/07 05:49:59;;;;;;;22.77;16.80;;;;;;;15.03;100.00;98364.06;4236284;27;20114;-72
2022/09/07 05:52:00;;;;;;;20.90;16.40;;;;;;;15.07;100.00;98360.06;4237324;27;20039;-72
2022/09/07 05:54:00;;;;;;;20.50;16.25;;;;;;;15.14;100.00;98362.81;4236625;27;20051;-72
2022/09/07 05:56:01;;;;;;;22.00;16.10;;;;;;;15.21;100.00;98361.94;4236800;27;20767;-72
2022/09/07 05:58:01;;;;;;;19.10;15.35;;;;;;;15.29;100.00;98365.44;4236236;27;20394;-72
2022/09/07 06:00:03;;;;;;;20.48;16.33;;;;;;;15.32;100.00;98362.63;4236128;27;20241;-72
2022/09/07 06:02:04;;;;;;;22.00;16.90;;;;;;;15.35;100.00;98355.44;4236629;27;20386;-72
2022/09/07 06:04:04;;;;;;;19.33;15.63;;;;;;;15.37;100.00;98366.97;4236275;27;20035;-72
2022/09/07 06:06:07;;;;;;;20.85;16.73;;;;;;;15.39;100.00;98353.41;4236866;27;20551;-73
2022/09/07 06:08:08;;;;;;;22.45;15.98;;;;;;;15.39;100.00;98345.03;4235348;27;20122;-72
2022/09/07 06:10:08;;;;;;;18.05;15.68;;;;;;;15.46;100.00;98348.53;4236224;27;20497;-72
2022/09/07 06:12:09;;;;;;;21.38;16.00;;;;;;;15.53;100.00;98344.91;4235699;27;20072;-72
2022/09/07 06:14:09;;;;;;;19.65;15.68;;;;;;;15.60;100.00;98350.41;4236694;27;20024;-72
2022/09/07 06:16:11;;;;;;;23.15;19.70;;;;;;;15.66;100.00;98357.16;4236677;27;20076;-72
2022/09/07 06:18:11;;;;;;;23.13;18.57;;;;;;;15.67;100.00;98352.34;4236613;27;20023;-72
2022/09/07 06:20:11;;;;;;;26.65;20.73;;;;;;;15.68;100.00;98357.50;4236202;27;20643;-72
2022/09/07 06:22:12;;;;;;;25.27;19.35;;;;;;;15.71;100.00;98358.66;4236857;27;20027;-72
2022/09/07 06:24:12;;;;;;;22.60;18.45;;;;;;;15.70;100.00;98357.88;4236566;27;20031;-72
2022/09/07 06:26:15;;;;;;;26.08;19.83;;;;;;;15.75;100.00;98359.44;4235947;27;20019;-72
2022/09/07 06:28:15;;;;;;;24.30;19.75;;;;;;;15.80;100.00;98347.81;4236699;27;20106;-72
2022/09/07 06:30:16;;;;;;;26.23;19.85;;;;;;;15.85;100.00;98357.72;4235621;27;20149;-72
2022/09/07 06:32:16;;;;;;;31.83;22.60;;;;;;;15.88;100.00;98351.31;4236397;27;20080;-72
2022/09/07 06:34:16;;;;;;;24.33;18.92;;;;;;;15.88;100.00;98356.88;4236767;28;20043;-72
2022/09/07 06:36:18;;;;;;;24.73;20.15;;;;;;;15.87;100.00;98350.53;4236240;27;20066;-71
2022/09/07 06:38:18;;;;;;;28.65;21.48;;;;;;;15.91;100.00;98354.06;4236111;28;20034;-72
2022/09/07 06:40:18;;;;;;;29.48;22.42;;;;;;;15.92;100.00;98346.50;4235866;28;20407;-72
2022/09/07 06:42:19;;;;;;;25.25;20.17;;;;;;;15.93;100.00;98340.50;4237058;28;20412;-72
2022/09/07 06:44:19;;;;;;;28.08;21.27;;;;;;;15.95;100.00;98338.06;4236238;28;20626;-71
2022/09/07 06:46:20;;;;;;;31.75;23.23;;;;;;;16.04;100.00;98326.41;4236317;28;20350;-72
2022/09/07 06:48:20;;;;;;;30.67;22.95;;;;;;;16.09;100.00;98320.38;4236372;28;20163;-72
2022/09/07 06:50:21;;;;;;;25.35;19.83;;;;;;;16.14;100.00;98327.50;4236195;28;20143;-72
2022/09/07 06:52:21;;;;;;;21.95;17.35;;;;;;;16.20;100.00;98332.16;4236251;28;20206;-72
2022/09/07 06:54:21;;;;;;;24.98;19.25;;;;;;;16.22;100.00;98324.19;4236541;28;20477;-72
2022/09/07 06:56:23;;;;;;;22.52;17.67;;;;;;;16.27;100.00;98322.91;4235488;28;20031;-72
2022/09/07 06:58:24;;;;;;;24.43;19.60;;;;;;;16.31;100.00;98334.84;4235616;28;20146;-72
2022/09/07 07:00:24;;;;;;;26.55;20.35;;;;;;;16.38;100.00;98336.72;4236078;28;20043;-72
2022/09/07 07:02:25;;;;;;;24.27;17.63;;;;;;;16.42;100.00;98345.84;4236572;28;21314;-72
2022/09/07 07:04:25;;;;;;;22.13;18.55;;;;;;;16.43;100.00;98339.03;4235840;28;20410;-72
2022/09/07 07:06:39;;;;;;;22.38;18.77;;;;;;;16.50;100.00;98330.56;4236534;28;20070;-72
2022/09/07 07:08:39;;;;;;;24.58;19.10;;;;;;;16.50;100.00;98320.19;4235766;28;20047;-72
2022/09/07 07:10:40;;;;;;;25.70;20.13;;;;;;;16.54;100.00;98329.28;4236111;28;20050;-72
2022/09/07 07:12:40;;;;;;;33.08;20.90;;;;;;;16.57;100.00;98330.47;4236301;28;20483;-72
2022/09/07 07:14:41;;;;;;;27.10;20.25;;;;;;;16.55;100.00;98339.28;4236193;27;20353;-72
2022/09/07 07:16:41;;;;;;;25.02;18.90;;;;;;;16.56;100.00;98340.06;4238866;27;20051;-72
2022/09/07 07:18:43;;;;;;;29.08;21.60;;;;;;;16.55;100.00;98339.28;4239005;27;20031;-72
2022/09/07 07:20:43;;;;;;;25.17;20.15;;;;;;;16.60;100.00;98348.38;4239849;27;20522;-72
2022/09/07 07:22:48;;;;;;;26.35;20.45;;;;;;;16.64;100.00;98347.13;4239288;27;20051;-72
2022/09/07 07:24:49;;;;;;;30.58;22.40;;;;;;;16.69;100.00;98354.25;4239085;27;20525;-71
2022/09/07 07:26:49;;;;;;;25.65;19.33;;;;;;;16.67;100.00;98340.69;4239405;27;20081;-72
2022/09/07 07:28:51;;;;;;;22.98;18.35;;;;;;;16.70;100.00;98344.66;4238438;27;20154;-72
2022/09/07 07:31:00;;;;;;;26.58;20.85;;;;;;;16.77;100.00;98353.72;4239078;27;20039;-72
2022/09/07 07:33:00;;;;;;;28.17;21.10;;;;;;;16.83;100.00;98349.25;4239122;27;20039;-72
2022/09/07 07:35:00;;;;;;;23.27;18.75;;;;;;;16.87;100.00;98348.38;4238964;27;20432;-72
2022/09/07 07:37:01;;;;;;;24.13;17.98;;;;;;;16.96;100.00;98348.63;4239979;27;20325;-72
2022/09/07 07:39:03;;;;;;;23.15;17.90;;;;;;;17.02;100.00;98347.75;4238008;27;20121;-72
2022/09/07 07:41:04;;;;;;;32.35;21.95;;;;;;;17.14;100.00;98351.94;4220588;28;20036;-72
2022/09/07 07:43:05;;;;;;;;;;;;;;;17.21;100.00;98351.03;4239459;27;20510;-72
2022/09/07 07:45:08;;;;;;;24.15;18.45;;;;;;;17.23;100.00;98341.00;4239280;27;19919;-72
2022/09/07 07:47:08;;;;;;;25.20;20.50;;;;;;;17.30;100.00;98346.47;4239070;27;20047;-72
2022/09/07 07:49:09;;;;;;;24.20;19.05;;;;;;;17.37;100.00;98353.94;4238110;27;20171;-72
2022/09/07 07:51:10;;;;;;;23.33;19.48;;;;;;;17.40;100.00;98351.09;4238888;27;20031;-72
2022/09/07 07:53:11;;;;;;;21.08;18.08;;;;;;;17.49;100.00;98353.31;4238952;27;20229;-72
2022/09/07 07:55:11;;;;;;;21.98;18.42;;;;;;;17.58;100.00;98353.56;4238519;27;20074;-72
2022/09/07 07:57:11;;;;;;;21.63;18.00;;;;;;;17.66;100.00;98349.41;4238764;27;20038;-72
2022/09/07 07:59:12;;;;;;;20.75;17.00;;;;;;;17.74;98.69;98352.91;4238511;27;20037;-72
2022/09/07 08:01:15;;;;;;;23.90;19.27;;;;;;;17.79;97.80;98355.19;4238819;27;20118;-72
2022/09/07 08:03:15;;;;;;;18.70;16.70;;;;;;;17.86;97.41;98355.03;4238872;27;20050;-72
2022/09/07 08:05:16;;;;;;;21.42;17.70;;;;;;;17.95;97.97;98346.84;4238597;27;20039;-72
2022/09/07 08:07:16;;;;;;;21.88;16.98;;;;;;;18.03;97.37;98353.09;4238649;27;20047;-72
2022/09/07 08:09:16;;;;;;;27.83;19.55;;;;;;;18.14;96.64;98355.69;4237557;27;20073;-72
2022/09/07 08:11:19;;;;;;;23.55;17.88;;;;;;;18.18;95.78;98356.41;4238756;27;20191;-72
2022/09/07 08:13:20;;;;;;;22.45;17.73;;;;;;;18.25;94.72;98353.47;4238421;27;20047;-72
2022/09/07 08:15:20;;;;;;;19.10;16.60;;;;;;;18.32;94.45;98358.13;4238662;27;20287;-72
2022/09/07 08:17:21;;;;;;;18.02;15.85;;;;;;;18.33;93.71;98357.69;4238128;27;20096;-72
2022/09/07 08:19:21;;;;;;;18.70;16.73;;;;;;;18.44;93.87;98363.03;4237527;27;20043;-72
2022/09/07 08:21:21;;;;;;;18.80;15.68;;;;;;;18.55;93.27;98354.44;4238694;27;20075;-72
2022/09/07 08:23:22;;;;;;;19.42;16.35;;;;;;;18.66;92.71;98358.59;4237997;27;20075;-72
2022/09/07 08:25:22;;;;;;;25.02;17.15;;;;;;;18.76;91.93;98363.16;4238187;27;20047;-72
2022/09/07 08:27:23;;;;;;;22.25;16.90;;;;;;;18.82;91.00;98363.44;4238287;27;20499;-72
2022/09/07 08:29:23;;;;;;;20.73;16.30;;;;;;;18.86;90.79;98364.13;4238059;27;20066;-72
2022/09/07 08:31:23;;;;;;;18.27;14.70;;;;;;;18.87;90.46;98365.72;4238419;27;20205;-72
2022/09/07 08:33:24;;;;;;;17.70;15.10;;;;;;;18.90;90.47;98366.84;4238140;27;20134;-72
2022/09/07 08:35:25;;;;;;;17.80;15.90;;;;;;;18.96;89.58;98365.13;4238580;27;20397;-72
2022/09/07 08:37:25;;;;;;;18.60;15.77;;;;;;;19.06;90.22;98359.25;4237890;27;20050;-72
2022/09/07 08:39:26;;;;;;;19.55;15.15;;;;;;;19.13;89.33;98363.88;4237354;27;20425;-72
2022/09/07 08:41:29;;;;;;;16.20;13.45;;;;;;;19.21;88.17;98356.09;4238506;27;20103;-72
2022/09/07 08:43:35;;;;;;;21.70;14.15;;;;;;;19.35;86.65;98361.31;4238128;27;20356;-72
2022/09/07 08:45:42;;;;;;;16.98;13.75;;;;;;;19.41;86.54;98353.16;4238105;27;20035;-72
2022/09/07 08:47:49;;;;;;;17.08;14.77;;;;;;;19.54;84.87;98354.81;4237866;27;20475;-72
2022/09/07 08:50:04;;;;;;;15.73;12.77;;;;;;;19.61;84.56;98357.47;4237201;27;20416;-72
2022/09/07 08:52:13;;;;;;;14.25;12.68;;;;;;;19.62;83.24;98361.84;4236955;27;20035;-72
2022/09/07 08:54:15;;;;;;;18.15;14.02;;;;;;;19.67;83.45;98359.72;4238226;27;20030;-72
2022/09/07 08:56:26;;;;;;;17.60;14.80;;;;;;;19.87;83.32;98363.97;4237936;27;20068;-72
2022/09/07 08:58:30;;;;;;;18.27;14.57;;;;;;;19.97;82.69;98352.88;4237439;27;20412;-72
2022/09/07 09:00:30;;;;;;;19.65;14.73;;;;;;;20.04;81.00;98361.91;4238105;27;20701;-72
2022/09/07 09:02:31;;;;;;;18.27;14.52;;;;;;;20.08;80.58;98361.78;4237873;27;20118;-72
2022/09/07 09:04:34;;;;;;;19.10;12.98;;;;;;;20.10;80.50;98362.91;4237695;27;20035;-72
2022/09/07 09:06:42;;;;;;;17.85;13.43;;;;;;;20.14;79.00;98366.41;4236428;27;20158;-72
2022/09/07 09:09:00;;;;;;;14.15;10.77;;;;;;;20.16;78.71;98351.94;4236954;27;20473;-72
2022/09/07 09:11:19;;;;;;;35.13;26.83;;;;;;;20.24;79.03;98358.13;4237016;27;20104;-72
2022/09/07 09:14:05;;;;;;;13.63;12.00;;;;;;;20.36;78.35;98360.97;4236611;27;20416;-72
2022/09/07 09:16:42;;;;;;;13.60;10.80;;;;;;;20.52;76.96;98360.13;4225618;27;20135;-72
2022/09/07 09:19:09;;;;;;;13.18;8.90;;;;;;;20.60;76.60;98360.69;4236949;27;20050;-72
2022/09/07 09:21:15;;;;;;;12.27;10.05;;;;;;;20.70;75.03;98363.19;4236976;27;20043;-72
2022/09/07 09:23:18;;;;;;;10.70;9.27;;;;;;;20.76;74.73;98355.72;4237570;27;20039;-72
2022/09/07 09:25:32;;;;;;;10.73;9.23;;;;;;;20.80;74.58;98349.22;4237123;27;20071;-72
2022/09/07 09:27:32;;;;;;;10.38;9.13;;;;;;;20.83;73.15;98345.50;4235993;27;20138;-72